createdAt,value
2023-05-12T00:01:53.161Z,15.67
2023-05-12T00:04:19.765Z,15.18
2023-05-12T00:06:46.366Z,14.70
2023-05-12T00:09:12.900Z,14.95
2023-05-12T00:11:40.008Z,14.73
2023-05-12T00:14:07.113Z,15.40
2023-05-12T00:16:33.801Z,14.95
2023-05-12T00:19:00.679Z,14.07
2023-05-12T00:21:27.392Z,12.55
2023-05-12T00:23:54.003Z,11.52
2023-05-12T00:26:21.063Z,11.15
2023-05-12T00:28:48.803Z,11.27
2023-05-12T00:31:16.079Z,12.15
2023-05-12T00:33:42.769Z,12.02
2023-05-12T00:36:09.612Z,11.98
2023-05-12T00:38:37.429Z,11.48
2023-05-12T00:41:04.760Z,12.00
2023-05-12T00:43:32.106Z,12.10
2023-05-12T00:48:26.120Z,11.77
2023-05-12T00:50:54.217Z,11.63
2023-05-12T00:53:20.938Z,11.40
2023-05-12T00:55:47.636Z,12.15
2023-05-12T00:58:14.694Z,11.60
2023-05-12T01:00:41.326Z,11.60
2023-05-12T01:03:08.437Z,11.70
2023-05-12T01:06:01.114Z,12.15
2023-05-12T01:08:29.467Z,12.35
2023-05-12T01:10:56.121Z,11.82
2023-05-12T01:13:22.731Z,12.02
2023-05-12T01:15:51.731Z,11.95
2023-05-12T01:18:21.576Z,11.55
2023-05-12T01:20:48.547Z,11.90
2023-05-12T01:23:19.805Z,11.82
2023-05-12T01:25:49.673Z,11.45
2023-05-12T01:28:17.234Z,12.30
2023-05-12T01:30:44.234Z,12.23
2023-05-12T01:33:11.140Z,11.77
2023-05-12T01:35:37.833Z,12.88
2023-05-12T01:38:04.553Z,12.07
2023-05-12T01:40:31.276Z,11.43
2023-05-12T01:42:57.965Z,12.18
2023-05-12T01:45:24.506Z,11.80
2023-05-12T01:47:51.136Z,11.67
2023-05-12T01:50:18.096Z,12.80
2023-05-12T01:52:46.289Z,11.90
2023-05-12T01:55:12.910Z,13.10
2023-05-12T01:57:39.600Z,12.10
2023-05-12T02:00:07.034Z,13.35
2023-05-12T02:05:01.504Z,13.10
2023-05-12T02:07:28.134Z,12.87
2023-05-12T02:09:54.746Z,12.43
2023-05-12T02:12:21.484Z,11.88
2023-05-12T02:14:48.133Z,12.25
2023-05-12T02:17:14.715Z,11.77
2023-05-12T02:19:41.449Z,11.23
2023-05-12T02:22:08.109Z,11.27
2023-05-12T02:24:34.717Z,11.85
2023-05-12T02:27:01.308Z,11.33
2023-05-12T02:29:27.856Z,10.95
2023-05-12T02:31:54.523Z,11.40
2023-05-12T02:34:21.117Z,11.70
2023-05-12T02:36:47.663Z,11.50
2023-05-12T02:39:14.390Z,11.33
2023-05-12T02:41:40.984Z,11.30
2023-05-12T02:44:07.663Z,10.93
2023-05-12T02:46:34.290Z,12.48
2023-05-12T02:49:00.919Z,12.25
2023-05-12T02:51:27.575Z,12.60
2023-05-12T02:53:54.252Z,13.30
2023-05-12T02:56:21.548Z,12.98
2023-05-12T02:58:48.576Z,12.05
2023-05-12T03:01:15.143Z,11.95
2023-05-12T03:03:41.954Z,12.67
2023-05-12T03:06:08.896Z,12.30
2023-05-12T03:08:36.314Z,13.85
2023-05-12T03:13:29.494Z,12.48
2023-05-12T03:15:57.243Z,13.07
2023-05-12T03:18:23.871Z,12.85
2023-05-12T03:20:50.568Z,11.77
2023-05-12T03:23:17.213Z,11.52
2023-05-12T03:25:43.889Z,11.45
2023-05-12T03:28:10.843Z,11.32
2023-05-12T03:30:37.464Z,11.90
2023-05-12T03:33:04.485Z,13.13
2023-05-12T03:35:31.283Z,12.05
2023-05-12T03:37:57.850Z,11.25
2023-05-12T03:40:24.500Z,11.13
2023-05-12T03:42:51.644Z,11.93
2023-05-12T03:45:18.459Z,11.50
2023-05-12T03:47:45.093Z,12.18
2023-05-12T03:50:11.898Z,12.02
2023-05-12T03:52:41.204Z,11.90
2023-05-12T03:55:08.759Z,19.13
2023-05-12T03:57:37.763Z,40.70
2023-05-12T04:00:05.495Z,32.05
2023-05-12T04:02:32.171Z,14.77
2023-05-12T04:04:58.944Z,11.20
2023-05-12T04:07:25.607Z,9.90
2023-05-12T04:09:52.200Z,9.32
2023-05-12T04:12:18.798Z,9.98
2023-05-12T04:14:45.531Z,10.45
2023-05-12T04:17:12.192Z,8.85
2023-05-12T04:19:38.894Z,9.38
2023-05-12T04:22:05.708Z,8.68
2023-05-12T04:24:32.309Z,9.05
2023-05-12T04:26:58.965Z,9.40
2023-05-12T04:29:25.614Z,10.18
2023-05-12T04:31:54.761Z,9.63
2023-05-12T04:34:21.552Z,9.10
2023-05-12T04:36:48.144Z,9.90
2023-05-12T04:39:14.804Z,10.82
2023-05-12T04:41:41.458Z,11.35
2023-05-12T04:44:08.080Z,11.43
2023-05-12T04:46:34.776Z,11.25
2023-05-12T04:49:01.941Z,11.70
2023-05-12T04:51:28.582Z,12.02
2023-05-12T04:53:55.256Z,11.97
2023-05-12T04:56:22.374Z,11.45
2023-05-12T04:58:49.075Z,11.15
2023-05-12T05:01:16.135Z,10.73
2023-05-12T05:03:42.904Z,10.57
2023-05-12T05:06:09.573Z,9.60
2023-05-12T05:08:36.674Z,10.82
2023-05-12T05:11:03.293Z,9.98
2023-05-12T05:13:29.919Z,10.75
2023-05-12T05:15:56.738Z,10.20
2023-05-12T05:18:24.328Z,10.50
2023-05-12T05:20:57.996Z,10.68
2023-05-12T05:23:26.118Z,12.23
2023-05-12T05:25:53.052Z,13.05
2023-05-12T05:28:19.755Z,12.95
2023-05-12T05:30:46.392Z,11.75
2023-05-12T05:33:13.352Z,11.97
2023-05-12T05:35:40.355Z,10.95
2023-05-12T05:38:06.986Z,11.30
2023-05-12T05:40:44.862Z,9.88
2023-05-12T05:43:16.118Z,9.23
2023-05-12T05:45:42.765Z,9.15
2023-05-12T05:48:09.412Z,8.77
2023-05-12T05:50:36.113Z,8.32
2023-05-12T05:53:02.724Z,8.80
2023-05-12T05:55:29.355Z,8.32
2023-05-12T05:57:55.945Z,8.18
2023-05-12T06:00:22.602Z,8.20
2023-05-12T06:02:49.338Z,7.30
2023-05-12T06:05:15.998Z,8.63
2023-05-12T06:07:43.227Z,8.03
2023-05-12T06:10:09.901Z,7.13
2023-05-12T06:12:36.546Z,7.60
2023-05-12T06:15:03.363Z,8.90
2023-05-12T06:17:32.059Z,8.63
2023-05-12T06:19:59.353Z,8.45
2023-05-12T06:22:26.103Z,9.23
2023-05-12T06:24:52.679Z,8.98
2023-05-12T06:27:19.328Z,9.02
2023-05-12T06:29:46.065Z,8.60
2023-05-12T06:32:12.707Z,9.55
2023-05-12T06:34:39.408Z,10.35
2023-05-12T06:37:06.189Z,8.95
2023-05-12T06:39:32.809Z,9.18
2023-05-12T06:41:59.619Z,8.60
2023-05-12T06:44:26.406Z,8.45
2023-05-12T06:46:53.258Z,8.38
2023-05-12T06:49:19.869Z,7.22
2023-05-12T06:51:46.679Z,7.53
2023-05-12T06:54:13.334Z,6.47
2023-05-12T06:56:39.941Z,6.25
2023-05-12T06:59:06.532Z,6.63
2023-05-12T07:01:33.274Z,6.27
2023-05-12T07:04:00.515Z,6.43
2023-05-12T07:06:27.944Z,6.80
2023-05-12T07:11:22.511Z,6.78
2023-05-12T07:13:50.623Z,6.75
2023-05-12T07:16:18.224Z,6.15
2023-05-12T07:18:45.078Z,7.07
2023-05-12T07:21:13.184Z,6.65
2023-05-12T07:23:40.052Z,6.82
2023-05-12T07:26:07.668Z,7.07
2023-05-12T07:28:36.677Z,6.55
2023-05-12T07:31:04.368Z,7.13
2023-05-12T07:33:31.451Z,6.70
2023-05-12T07:35:58.327Z,7.05
2023-05-12T07:38:25.207Z,7.03
2023-05-12T07:40:51.884Z,7.13
2023-05-12T07:43:18.533Z,7.22
2023-05-12T07:45:46.195Z,6.97
2023-05-12T07:48:13.430Z,6.72
2023-05-12T07:50:40.383Z,7.60
2023-05-12T07:53:07.209Z,6.53
2023-05-12T07:55:33.942Z,6.75
2023-05-12T07:58:01.136Z,6.80
2023-05-12T08:00:28.239Z,6.95
2023-05-12T08:02:55.579Z,6.15
2023-05-12T08:05:22.487Z,7.03
2023-05-12T08:07:49.059Z,6.97
2023-05-12T08:10:15.748Z,6.85
2023-05-12T08:12:42.824Z,6.85
2023-05-12T08:15:09.861Z,6.85
2023-05-12T08:17:36.601Z,6.68
2023-05-12T08:20:07.162Z,6.32
2023-05-12T08:22:33.933Z,6.88
2023-05-12T08:25:00.557Z,7.65
2023-05-12T08:27:27.312Z,7.10
2023-05-12T08:29:53.941Z,6.68
2023-05-12T08:32:20.742Z,6.75
2023-05-12T08:34:47.418Z,6.25
2023-05-12T08:37:14.193Z,6.50
2023-05-12T08:39:41.037Z,7.15
2023-05-12T08:42:27.380Z,6.57
2023-05-12T08:44:54.864Z,7.07
2023-05-12T08:47:23.521Z,6.93
2023-05-12T08:49:59.799Z,6.63
2023-05-12T08:52:32.222Z,6.00
2023-05-12T08:55:00.814Z,6.47
2023-05-12T08:57:29.604Z,5.50
2023-05-12T08:59:59.474Z,5.40
2023-05-12T09:02:37.625Z,5.70
2023-05-12T09:05:11.815Z,5.63
2023-05-12T09:07:44.435Z,5.25
2023-05-12T09:10:32.784Z,5.93
2023-05-12T09:13:11.520Z,6.07
2023-05-12T09:15:42.769Z,5.82
2023-05-12T09:18:09.475Z,5.25
2023-05-12T09:20:36.841Z,5.68
2023-05-12T09:23:17.092Z,5.85
2023-05-12T09:25:44.790Z,5.43
2023-05-12T09:28:11.564Z,6.03
2023-05-12T09:30:38.574Z,6.45
2023-05-12T09:33:09.653Z,5.60
2023-05-12T09:35:39.860Z,5.63
2023-05-12T09:38:08.074Z,5.90
2023-05-12T09:40:35.205Z,6.70
2023-05-12T09:43:02.383Z,6.50
2023-05-12T09:45:29.023Z,6.22
2023-05-12T09:47:55.883Z,5.38
2023-05-12T09:50:23.026Z,6.55
2023-05-12T09:52:51.155Z,5.50
2023-05-12T09:55:18.072Z,6.50
2023-05-12T09:57:45.680Z,5.32
2023-05-12T10:00:31.237Z,5.03
2023-05-12T10:03:02.327Z,4.85
2023-05-12T10:05:31.805Z,5.20
2023-05-12T10:08:01.747Z,4.95
2023-05-12T10:10:28.889Z,4.68
2023-05-12T10:12:56.270Z,5.03
2023-05-12T10:17:53.939Z,4.72
2023-05-12T10:20:20.929Z,4.75
2023-05-12T10:22:49.945Z,5.47
2023-05-12T10:25:17.978Z,4.95
2023-05-12T10:27:45.963Z,4.22
2023-05-12T10:30:13.353Z,4.30
2023-05-12T10:32:40.289Z,4.05
2023-05-12T10:35:12.576Z,4.63
2023-05-12T10:37:39.996Z,4.63
2023-05-12T10:42:43.314Z,4.40
2023-05-12T10:45:17.818Z,5.75
2023-05-12T10:47:45.882Z,4.50
2023-05-12T10:50:16.125Z,3.90
2023-05-12T10:52:58.304Z,3.80
2023-05-12T10:55:36.878Z,3.78
2023-05-12T10:58:12.545Z,4.05
2023-05-12T11:00:45.688Z,3.80
2023-05-12T11:03:16.459Z,3.70
2023-05-12T11:05:46.131Z,3.00
2023-05-12T11:08:14.235Z,3.50
2023-05-12T11:10:42.591Z,3.08
2023-05-12T11:13:09.806Z,3.00
2023-05-12T11:15:36.513Z,3.22
2023-05-12T11:18:03.811Z,3.03
2023-05-12T11:22:57.910Z,3.17
2023-05-12T11:25:27.285Z,3.00
2023-05-12T11:27:54.361Z,2.60
2023-05-12T11:30:21.497Z,2.70
2023-05-12T11:32:48.678Z,2.78
2023-05-12T11:35:17.685Z,2.40
2023-05-12T11:37:45.877Z,5.55
2023-05-12T11:40:21.064Z,6.60
2023-05-12T11:42:51.724Z,6.97
2023-05-12T11:45:23.798Z,6.57
2023-05-12T11:47:50.771Z,6.70
2023-05-12T11:50:22.982Z,7.18
2023-05-12T11:52:50.715Z,7.65
2023-05-12T11:55:23.082Z,7.40
2023-05-12T11:58:01.607Z,7.10
2023-05-12T12:00:35.617Z,7.20
2023-05-12T12:03:21.346Z,7.15
2023-05-12T12:05:59.997Z,8.05
2023-05-12T12:08:26.686Z,7.50
2023-05-12T12:10:53.453Z,8.10
2023-05-12T12:13:24.763Z,7.57
2023-05-12T12:15:51.936Z,8.25
2023-05-12T12:18:19.277Z,8.50
2023-05-12T12:23:13.561Z,7.53
2023-05-12T12:25:40.198Z,8.20
2023-05-12T12:28:06.787Z,8.40
2023-05-12T12:30:34.145Z,9.20
2023-05-12T12:35:27.605Z,8.15
2023-05-12T12:37:54.507Z,8.02
2023-05-12T12:40:21.343Z,7.93
2023-05-12T12:42:48.031Z,7.32
2023-05-12T12:45:14.673Z,8.15
2023-05-12T12:47:41.358Z,7.95
2023-05-12T12:50:10.072Z,7.38
2023-05-12T12:52:38.392Z,7.07
2023-05-12T12:55:06.653Z,7.85
2023-05-12T12:57:33.280Z,7.47
2023-05-12T12:59:59.852Z,7.18
2023-05-12T13:02:27.119Z,7.45
2023-05-12T13:07:20.997Z,7.93
2023-05-12T13:09:47.880Z,6.80
2023-05-12T13:12:14.743Z,7.75
2023-05-12T13:14:41.405Z,8.05
2023-05-12T13:17:08.294Z,7.60
2023-05-12T13:19:37.791Z,7.22
2023-05-12T13:22:05.165Z,7.30
2023-05-12T13:24:31.825Z,7.13
2023-05-12T13:26:58.546Z,6.50
2023-05-12T13:29:25.215Z,6.68
2023-05-12T13:31:51.976Z,6.78
2023-05-12T13:34:18.625Z,6.22
2023-05-12T13:36:45.393Z,6.20
2023-05-12T13:39:12.798Z,6.53
2023-05-12T13:44:06.302Z,9.50
2023-05-12T13:46:33.082Z,8.20
2023-05-12T13:48:59.869Z,6.50
2023-05-12T13:51:26.768Z,8.20
2023-05-12T13:53:53.937Z,6.70
2023-05-12T13:56:20.586Z,7.55
2023-05-12T13:58:47.260Z,7.05
2023-05-12T14:01:14.114Z,6.78
2023-05-12T14:03:42.067Z,6.85
2023-05-12T14:06:09.488Z,7.22
2023-05-12T14:11:03.352Z,6.40
2023-05-12T14:13:31.066Z,6.97
2023-05-12T14:15:57.837Z,7.40
2023-05-12T14:18:25.116Z,6.80
2023-05-12T14:23:18.615Z,6.82
2023-05-12T14:25:45.289Z,6.85
2023-05-12T14:28:12.672Z,6.30
2023-05-12T14:30:39.723Z,6.80
2023-05-12T14:33:07.287Z,6.47
2023-05-12T14:35:33.996Z,7.40
2023-05-12T14:38:00.556Z,7.20
2023-05-12T14:40:27.531Z,7.33
2023-05-12T14:42:55.238Z,6.85
2023-05-12T14:45:22.327Z,7.18
2023-05-12T14:47:49.224Z,6.88
2023-05-12T14:50:15.984Z,7.28
2023-05-12T14:52:42.634Z,6.90
2023-05-12T14:55:13.970Z,6.45
2023-05-12T14:57:44.454Z,6.78
2023-05-12T15:00:12.953Z,6.28
2023-05-12T15:02:41.476Z,6.60
2023-05-12T15:05:09.695Z,6.50
2023-05-12T15:07:36.770Z,6.40
2023-05-12T15:10:04.179Z,6.35
2023-05-12T15:12:31.704Z,6.35
2023-05-12T15:15:01.276Z,7.13
2023-05-12T15:17:30.806Z,6.70
2023-05-12T15:19:59.534Z,6.68
2023-05-12T15:22:26.417Z,7.20
2023-05-12T15:24:53.031Z,7.00
2023-05-12T15:27:19.685Z,6.63
2023-05-12T15:29:46.335Z,6.63
2023-05-12T15:32:13.125Z,6.80
2023-05-12T15:34:39.845Z,7.30
2023-05-12T15:37:06.782Z,8.35
2023-05-12T15:39:33.457Z,7.35
2023-05-12T15:42:01.097Z,6.95
2023-05-12T15:44:27.941Z,8.15
2023-05-12T15:46:54.862Z,7.57
2023-05-12T15:49:21.718Z,8.35
2023-05-12T15:51:48.470Z,7.85
2023-05-12T15:54:15.168Z,7.45
2023-05-12T15:56:41.872Z,14.77
2023-05-12T15:59:08.734Z,8.13
2023-05-12T16:01:35.819Z,8.65
2023-05-12T16:04:02.629Z,9.10
2023-05-12T16:06:29.616Z,8.00
2023-05-12T16:08:56.566Z,8.10
2023-05-12T16:11:23.516Z,8.57
2023-05-12T16:13:52.591Z,7.13
2023-05-12T16:16:19.797Z,8.45
2023-05-12T16:18:46.699Z,9.70
2023-05-12T16:21:13.861Z,9.88
2023-05-12T16:23:40.616Z,8.55
2023-05-12T16:26:07.356Z,8.68
2023-05-12T16:28:34.675Z,9.43
2023-05-12T16:33:28.744Z,9.48
2023-05-12T16:35:55.675Z,17.48
2023-05-12T16:38:22.308Z,7.72
2023-05-12T16:40:49.350Z,7.45
2023-05-12T16:43:16.122Z,16.52
2023-05-12T16:45:43.121Z,6.90
2023-05-12T16:48:09.810Z,9.60
2023-05-12T16:50:36.494Z,7.03
2023-05-12T16:53:03.123Z,7.18
2023-05-12T16:55:29.682Z,7.38
2023-05-12T16:57:56.764Z,7.07
2023-05-12T17:00:23.426Z,7.00
2023-05-12T17:02:50.164Z,25.27
2023-05-12T17:05:16.882Z,6.47
2023-05-12T17:07:43.508Z,5.93
2023-05-12T17:10:10.511Z,5.78
2023-05-12T17:12:37.749Z,6.70
2023-05-12T17:15:08.071Z,5.78
2023-05-12T17:17:35.556Z,6.72
2023-05-12T17:20:02.604Z,5.95
2023-05-12T17:22:29.674Z,5.82
2023-05-12T17:24:56.434Z,6.00
2023-05-12T17:27:23.055Z,5.47
2023-05-12T17:29:49.668Z,5.85
2023-05-12T17:32:16.350Z,6.07
2023-05-12T17:34:42.934Z,5.60
2023-05-12T17:37:09.548Z,7.70
2023-05-12T17:39:40.406Z,6.85
2023-05-12T17:42:07.400Z,5.82
2023-05-12T17:44:34.132Z,8.80
2023-05-12T17:47:00.990Z,8.30
2023-05-12T17:49:27.651Z,7.93
2023-05-12T17:51:55.044Z,6.57
2023-05-12T17:56:48.698Z,7.30
2023-05-12T17:59:15.364Z,39.78
2023-05-12T18:01:42.053Z,25.25
2023-05-12T18:04:09.136Z,8.02
2023-05-12T18:06:35.832Z,7.00
2023-05-12T18:09:03.334Z,6.10
2023-05-12T18:11:29.953Z,6.22
2023-05-12T18:13:56.718Z,7.20
2023-05-12T18:16:29.098Z,7.97
2023-05-12T18:18:56.971Z,7.53
2023-05-12T18:23:50.462Z,7.85
2023-05-12T18:26:17.263Z,7.50
2023-05-12T18:28:44.011Z,7.55
2023-05-12T18:33:40.806Z,6.75
2023-05-12T18:36:07.570Z,7.93
2023-05-12T18:38:34.626Z,8.40
2023-05-12T18:41:01.285Z,9.80
2023-05-12T18:43:28.040Z,9.57
2023-05-12T18:45:54.689Z,8.75
2023-05-12T18:48:21.440Z,7.03
2023-05-12T18:50:48.108Z,7.57
2023-05-12T18:53:14.730Z,7.47
2023-05-12T18:55:41.341Z,7.87
2023-05-12T18:58:08.087Z,7.30
2023-05-12T19:00:35.630Z,7.43
2023-05-12T19:03:05.112Z,9.05
2023-05-12T19:05:31.884Z,9.15
2023-05-12T19:07:58.605Z,9.20
2023-05-12T19:10:25.274Z,8.30
2023-05-12T19:12:52.111Z,8.40
2023-05-12T19:15:19.245Z,8.15
2023-05-12T19:20:12.655Z,9.30
2023-05-12T19:22:39.312Z,11.55
2023-05-12T19:25:06.456Z,10.73
2023-05-12T19:27:33.109Z,10.55
2023-05-12T19:30:02.276Z,10.00
2023-05-12T19:32:29.218Z,10.57
2023-05-12T19:34:56.095Z,9.13
2023-05-12T19:37:23.303Z,7.03
2023-05-12T19:39:51.543Z,7.68
2023-05-12T19:42:18.175Z,7.20
2023-05-12T19:44:44.817Z,6.78
2023-05-12T19:47:12.608Z,6.43
2023-05-12T19:49:39.295Z,7.35
2023-05-12T19:52:06.473Z,8.02
2023-05-12T19:54:33.310Z,9.77
2023-05-12T19:56:59.993Z,8.70
2023-05-12T19:59:26.926Z,9.02
2023-05-12T20:01:54.024Z,8.93
2023-05-12T20:04:20.683Z,8.75
2023-05-12T20:06:47.386Z,9.05
2023-05-12T20:09:14.115Z,8.75
2023-05-12T20:11:40.796Z,8.35
2023-05-12T20:14:07.422Z,8.68
2023-05-12T20:16:34.172Z,7.82
2023-05-12T20:19:02.794Z,7.45
2023-05-12T20:21:31.450Z,7.20
2023-05-12T20:23:58.258Z,6.80
2023-05-12T20:26:24.960Z,7.00
2023-05-12T20:28:51.643Z,6.32
2023-05-12T20:31:18.711Z,6.55
2023-05-12T20:33:45.587Z,6.80
2023-05-12T20:36:12.363Z,6.95
2023-05-12T20:38:39.821Z,6.82
2023-05-12T20:41:07.316Z,6.57
2023-05-12T20:46:04.122Z,6.90
2023-05-12T20:48:30.797Z,6.72
2023-05-12T20:50:57.648Z,7.15
2023-05-12T20:53:24.355Z,6.47
2023-05-12T20:55:51.820Z,6.50
2023-05-12T20:58:18.444Z,6.45
2023-05-12T21:00:47.940Z,7.30
2023-05-12T21:03:20.446Z,7.35
2023-05-12T21:05:58.400Z,6.93
2023-05-12T21:08:25.518Z,7.32
2023-05-12T21:10:54.133Z,7.05
2023-05-12T21:13:20.862Z,7.07
2023-05-12T21:15:54.853Z,7.32
2023-05-12T21:18:23.740Z,6.57
2023-05-12T21:20:50.496Z,7.25
2023-05-12T21:23:17.176Z,7.30
2023-05-12T21:25:44.955Z,7.13
2023-05-12T21:28:14.487Z,7.10
2023-05-12T21:30:41.170Z,7.13
2023-05-12T21:33:11.146Z,7.50
2023-05-12T21:35:39.566Z,7.07
2023-05-12T21:38:08.538Z,7.15
2023-05-12T21:40:41.370Z,7.18
2023-05-12T21:43:08.093Z,6.47
2023-05-12T21:45:43.549Z,7.40
2023-05-12T21:48:10.386Z,7.07
2023-05-12T21:50:39.897Z,6.97
2023-05-12T21:53:06.674Z,6.10
2023-05-12T21:55:48.709Z,6.40
2023-05-12T21:58:23.711Z,6.68
2023-05-12T22:00:59.930Z,6.18
2023-05-12T22:03:37.246Z,7.15
2023-05-12T22:08:30.701Z,6.85
2023-05-12T22:11:00.484Z,7.25
2023-05-12T22:13:32.475Z,7.70
2023-05-12T22:16:09.519Z,7.90
2023-05-12T22:18:39.186Z,8.73
2023-05-12T22:21:14.124Z,8.25
2023-05-12T22:23:42.251Z,8.55
2023-05-12T22:26:12.347Z,8.50
2023-05-12T22:28:48.553Z,9.00
2023-05-12T22:31:20.774Z,8.90
2023-05-12T22:33:50.141Z,9.43
2023-05-12T22:36:17.009Z,8.75
2023-05-12T22:38:48.863Z,9.43
2023-05-12T22:41:21.998Z,8.73
2023-05-12T22:43:53.712Z,9.25
2023-05-12T22:46:29.961Z,9.20
2023-05-12T22:48:59.549Z,9.95
2023-05-12T22:51:26.312Z,8.88
2023-05-12T22:53:56.162Z,10.18
2023-05-12T22:56:27.590Z,9.75
2023-05-12T22:59:02.329Z,9.25
2023-05-12T23:01:38.064Z,9.77
2023-05-12T23:04:10.259Z,9.05
2023-05-12T23:06:40.527Z,9.32
2023-05-12T23:09:19.617Z,9.40
2023-05-12T23:11:46.342Z,9.35
2023-05-12T23:14:16.033Z,10.20
2023-05-12T23:16:48.057Z,9.02
2023-05-12T23:19:21.018Z,9.15
2023-05-12T23:21:54.777Z,9.18
2023-05-12T23:24:26.596Z,9.35
2023-05-12T23:27:02.366Z,8.35
2023-05-12T23:29:32.215Z,8.23
2023-05-12T23:32:05.014Z,8.40
2023-05-12T23:34:42.381Z,8.30
2023-05-12T23:37:09.552Z,8.55
2023-05-12T23:39:36.335Z,8.48
2023-05-12T23:42:05.065Z,8.48
2023-05-12T23:44:39.077Z,7.22
2023-05-12T23:47:12.928Z,7.18
2023-05-12T23:49:39.634Z,7.38
2023-05-12T23:52:12.383Z,7.47
2023-05-12T23:54:43.676Z,7.45
2023-05-12T23:57:20.209Z,7.30
2023-05-12T23:59:51.401Z,6.47
